ACA300 CYVR-KPDX
Flight info
| Callsign | ACA300 |
|---|---|
| Flight time | 0h 40m |
| Altitude | 29000 |
| Route | DCT SEA DCT BUWZO KRATR3 |
| Aircraft | A319/M-SDE3FGHIRWY/LB1 |
Departure
| Time | 2026-05-07 03:02 |
|---|---|
| Airport | Vancouver International Airport (CYVR) |
Arrival
| Time | 2026-05-07 03:43 |
|---|---|
| Airport | Portland International Airport (KPDX) |
| Time | Latitude | Longitude | Altitude | Speed | Heading |
|---|---|---|---|---|---|
| 2026-05-07 02:29 | 49.19485 | -123.18383 | 25 ft | 0 kts | 333° |
| 2026-05-07 02:48 | 49.19474 | -123.18373 | 26 ft | 4 kts | 324° |
| 2026-05-07 02:48 | 49.19459 | -123.18357 | 26 ft | 4 kts | 330° |
| 2026-05-07 02:49 | 49.19432 | -123.18338 | 27 ft | 4 kts | 348° |
| 2026-05-07 02:49 | 49.19407 | -123.18337 | 25 ft | 4 kts | 22° |
| 2026-05-07 02:49 | 49.19387 | -123.18360 | 26 ft | 4 kts | 64° |
| 2026-05-07 02:49 | 49.19382 | -123.18381 | 27 ft | 0 kts | 78° |
| 2026-05-07 02:53 | 49.19383 | -123.18367 | 27 ft | 3 kts | 87° |
| 2026-05-07 02:53 | 49.19364 | -123.18359 | 26 ft | 4 kts | 185° |
| 2026-05-07 02:54 | 49.19341 | -123.18378 | 26 ft | 7 kts | 222° |
| 2026-05-07 02:54 | 49.19341 | -123.18460 | 25 ft | 10 kts | 278° |
| 2026-05-07 02:54 | 49.19345 | -123.18562 | 29 ft | 10 kts | 247° |
| 2026-05-07 02:54 | 49.19289 | -123.18609 | 26 ft | 10 kts | 190° |
| 2026-05-07 02:55 | 49.19222 | -123.18600 | 27 ft | 10 kts | 143° |
| 2026-05-07 02:55 | 49.19161 | -123.18575 | 28 ft | 7 kts | 213° |
| 2026-05-07 02:55 | 49.19138 | -123.18608 | 25 ft | 5 kts | 224° |
| 2026-05-07 02:55 | 49.19128 | -123.18636 | 27 ft | 1 kts | 300° |
| 2026-05-07 02:56 | 49.19138 | -123.18648 | 27 ft | 2 kts | 317° |
| 2026-05-07 02:56 | 49.19149 | -123.18665 | 27 ft | 2 kts | 317° |
| 2026-05-07 02:56 | 49.19162 | -123.18683 | 26 ft | 3 kts | 317° |
| 2026-05-07 02:56 | 49.19176 | -123.18704 | 25 ft | 3 kts | 317° |
| 2026-05-07 02:57 | 49.19202 | -123.18739 | 26 ft | 7 kts | 320° |
| 2026-05-07 02:57 | 49.19238 | -123.18784 | 27 ft | 7 kts | 321° |
| 2026-05-07 02:57 | 49.19279 | -123.18834 | 26 ft | 8 kts | 322° |
| 2026-05-07 02:57 | 49.19323 | -123.18886 | 25 ft | 8 kts | 321° |
| 2026-05-07 02:58 | 49.19361 | -123.18952 | 25 ft | 9 kts | 292° |
| 2026-05-07 02:58 | 49.19357 | -123.19042 | 25 ft | 9 kts | 259° |
| 2026-05-07 02:58 | 49.19346 | -123.19138 | 25 ft | 9 kts | 260° |
| 2026-05-07 02:58 | 49.19333 | -123.19237 | 27 ft | 10 kts | 258° |
| 2026-05-07 02:59 | 49.19318 | -123.19345 | 26 ft | 10 kts | 258° |
| 2026-05-07 02:59 | 49.19305 | -123.19455 | 27 ft | 11 kts | 260° |
| 2026-05-07 02:59 | 49.19292 | -123.19570 | 26 ft | 11 kts | 260° |
| 2026-05-07 02:59 | 49.19277 | -123.19691 | 25 ft | 12 kts | 258° |
| 2026-05-07 03:00 | 49.19260 | -123.19817 | 25 ft | 12 kts | 258° |
| 2026-05-07 03:00 | 49.19243 | -123.19948 | 25 ft | 13 kts | 258° |
| 2026-05-07 03:00 | 49.19228 | -123.20085 | 25 ft | 13 kts | 261° |
| 2026-05-07 03:00 | 49.19211 | -123.20227 | 25 ft | 14 kts | 259° |
| 2026-05-07 03:01 | 49.19189 | -123.20372 | 25 ft | 14 kts | 246° |
| 2026-05-07 03:01 | 49.19108 | -123.20433 | 26 ft | 13 kts | 191° |
| 2026-05-07 03:01 | 49.19016 | -123.20458 | 25 ft | 14 kts | 179° |
| 2026-05-07 03:01 | 49.18959 | -123.20333 | 26 ft | 25 kts | 102° |
| 2026-05-07 03:02 | 49.18882 | -123.19656 | 26 ft | 99 kts | 99° |
| 2026-05-07 03:02 | 49.18721 | -123.18259 | 27 ft | 165 kts | 99° |
| 2026-05-07 03:02 | 49.18524 | -123.16448 | 565 ft | 172 kts | 99° |
| 2026-05-07 03:02 | 49.18259 | -123.14672 | 1280 ft | 172 kts | 110° |
| 2026-05-07 03:03 | 49.17836 | -123.12950 | 1937 ft | 178 kts | 112° |
| 2026-05-07 03:03 | 49.17318 | -123.11106 | 2275 ft | 202 kts | 114° |
| 2026-05-07 03:03 | 49.16711 | -123.09019 | 2677 ft | 227 kts | 114° |
| 2026-05-07 03:03 | 49.16037 | -123.06713 | 3146 ft | 251 kts | 114° |
| 2026-05-07 03:04 | 49.15156 | -123.04322 | 3855 ft | 263 kts | 132° |
| 2026-05-07 03:04 | 49.13706 | -123.02675 | 4729 ft | 267 kts | 158° |
| 2026-05-07 03:04 | 49.11925 | -123.01818 | 5654 ft | 271 kts | 165° |
| 2026-05-07 03:04 | 49.10102 | -123.01031 | 6600 ft | 274 kts | 166° |
| 2026-05-07 03:05 | 49.08254 | -123.00242 | 7491 ft | 279 kts | 166° |
| 2026-05-07 03:05 | 49.06367 | -122.99435 | 8368 ft | 283 kts | 166° |
| 2026-05-07 03:05 | 49.04458 | -122.98616 | 9205 ft | 288 kts | 166° |
| 2026-05-07 03:05 | 49.02506 | -122.97778 | 10023 ft | 294 kts | 167° |
| 2026-05-07 03:06 | 49.01944 | -122.97536 | 10217 ft | 298 kts | 167° |
| 2026-05-07 03:06 | 48.99948 | -122.96677 | 10530 ft | 321 kts | 167° |
| 2026-05-07 03:06 | 48.97745 | -122.95725 | 10801 ft | 345 kts | 166° |
| 2026-05-07 03:06 | 48.95361 | -122.94692 | 11020 ft | 368 kts | 166° |
| 2026-05-07 03:07 | 48.94319 | -122.94240 | 11184 ft | 374 kts | 166° |
| 2026-05-07 03:07 | 48.93961 | -122.94084 | 11253 ft | 376 kts | 166° |
| 2026-05-07 03:07 | 48.91415 | -122.92983 | 11862 ft | 384 kts | 166° |
| 2026-05-07 03:07 | 48.90125 | -122.92426 | 12178 ft | 387 kts | 167° |
| 2026-05-07 03:08 | 48.87513 | -122.91298 | 12792 ft | 394 kts | 166° |
| 2026-05-07 03:08 | 48.84852 | -122.90149 | 13447 ft | 399 kts | 167° |
| 2026-05-07 03:08 | 48.82199 | -122.89003 | 14096 ft | 404 kts | 167° |
| 2026-05-07 03:08 | 48.81403 | -122.88660 | 14289 ft | 405 kts | 167° |
| 2026-05-07 03:09 | 48.80919 | -122.88452 | 14401 ft | 406 kts | 167° |
| 2026-05-07 03:09 | 48.78193 | -122.87279 | 15046 ft | 410 kts | 167° |
| 2026-05-07 03:09 | 48.75427 | -122.86092 | 15669 ft | 414 kts | 167° |
| 2026-05-07 03:09 | 48.72645 | -122.84902 | 16271 ft | 419 kts | 167° |
| 2026-05-07 03:10 | 48.69841 | -122.83703 | 16856 ft | 423 kts | 167° |
| 2026-05-07 03:10 | 48.67031 | -122.82501 | 17430 ft | 427 kts | 167° |
| 2026-05-07 03:10 | 48.64122 | -122.81252 | 17965 ft | 431 kts | 167° |
| 2026-05-07 03:10 | 48.61231 | -122.80009 | 18511 ft | 435 kts | 167° |
| 2026-05-07 03:11 | 48.58326 | -122.78765 | 19047 ft | 439 kts | 167° |
| 2026-05-07 03:11 | 48.55373 | -122.77506 | 19556 ft | 443 kts | 168° |
| 2026-05-07 03:11 | 48.52394 | -122.76243 | 20003 ft | 447 kts | 168° |
| 2026-05-07 03:11 | 48.49393 | -122.74973 | 20496 ft | 450 kts | 168° |
| 2026-05-07 03:12 | 48.46366 | -122.73691 | 20965 ft | 454 kts | 167° |
| 2026-05-07 03:12 | 48.43312 | -122.72398 | 21420 ft | 458 kts | 168° |
| 2026-05-07 03:12 | 48.40236 | -122.71094 | 21873 ft | 461 kts | 168° |
| 2026-05-07 03:12 | 48.37134 | -122.69780 | 22309 ft | 465 kts | 168° |
| 2026-05-07 03:13 | 48.34022 | -122.68465 | 22740 ft | 468 kts | 168° |
| 2026-05-07 03:13 | 48.30915 | -122.67153 | 23150 ft | 471 kts | 168° |
| 2026-05-07 03:13 | 48.29474 | -122.66545 | 23330 ft | 472 kts | 168° |
| 2026-05-07 03:13 | 48.26306 | -122.65209 | 23703 ft | 476 kts | 168° |
| 2026-05-07 03:14 | 48.23087 | -122.63851 | 24074 ft | 479 kts | 168° |
| 2026-05-07 03:14 | 48.19872 | -122.62500 | 24450 ft | 482 kts | 168° |
| 2026-05-07 03:14 | 48.13385 | -122.59800 | 25181 ft | 487 kts | 168° |
| 2026-05-07 03:15 | 48.10116 | -122.58438 | 25527 ft | 489 kts | 168° |
| 2026-05-07 03:15 | 48.06825 | -122.57063 | 25866 ft | 492 kts | 168° |
| 2026-05-07 03:15 | 48.03516 | -122.55681 | 26198 ft | 494 kts | 168° |
| 2026-05-07 03:15 | 48.00201 | -122.54296 | 26509 ft | 497 kts | 168° |
| 2026-05-07 03:16 | 47.96924 | -122.52928 | 26821 ft | 499 kts | 168° |
| 2026-05-07 03:16 | 47.93530 | -122.51517 | 27129 ft | 501 kts | 168° |
| 2026-05-07 03:16 | 47.90204 | -122.50136 | 27417 ft | 503 kts | 168° |
| 2026-05-07 03:16 | 47.86825 | -122.48731 | 27704 ft | 505 kts | 168° |
| 2026-05-07 03:17 | 47.83431 | -122.47327 | 27984 ft | 508 kts | 168° |
| 2026-05-07 03:17 | 47.80026 | -122.45923 | 28268 ft | 509 kts | 168° |
| 2026-05-07 03:17 | 47.76597 | -122.44510 | 28546 ft | 511 kts | 168° |
| 2026-05-07 03:17 | 47.73176 | -122.43100 | 28804 ft | 513 kts | 168° |
| 2026-05-07 03:18 | 47.69938 | -122.41765 | 29099 ft | 513 kts | 168° |
| 2026-05-07 03:18 | 47.63010 | -122.38918 | 29207 ft | 508 kts | 168° |
| 2026-05-07 03:19 | 47.56257 | -122.36151 | 29196 ft | 507 kts | 168° |
| 2026-05-07 03:19 | 47.50572 | -122.33818 | 29195 ft | 507 kts | 168° |
| 2026-05-07 03:20 | 47.43767 | -122.31327 | 29212 ft | 503 kts | 176° |
| 2026-05-07 03:20 | 47.36968 | -122.30986 | 29214 ft | 497 kts | 185° |
| 2026-05-07 03:21 | 47.30310 | -122.31005 | 29201 ft | 497 kts | 185° |
| 2026-05-07 03:21 | 47.23497 | -122.30978 | 29201 ft | 497 kts | 185° |
| 2026-05-07 03:22 | 47.16948 | -122.30955 | 29197 ft | 497 kts | 185° |
| 2026-05-07 03:22 | 47.13589 | -122.30950 | 29206 ft | 497 kts | 185° |
| 2026-05-07 03:23 | 47.06711 | -122.30954 | 29203 ft | 497 kts | 185° |
| 2026-05-07 03:23 | 46.99842 | -122.30966 | 29195 ft | 497 kts | 185° |
| 2026-05-07 03:24 | 46.92931 | -122.30961 | 29192 ft | 497 kts | 185° |
| 2026-05-07 03:24 | 46.86013 | -122.30962 | 29197 ft | 497 kts | 185° |
| 2026-05-07 03:25 | 46.79096 | -122.30970 | 28836 ft | 497 kts | 185° |
| 2026-05-07 03:25 | 46.75628 | -122.30972 | 27558 ft | 503 kts | 184° |
| 2026-05-07 03:25 | 46.72093 | -122.30972 | 26207 ft | 509 kts | 184° |
| 2026-05-07 03:25 | 46.68529 | -122.30970 | 24851 ft | 514 kts | 184° |
| 2026-05-07 03:26 | 46.64954 | -122.30966 | 23527 ft | 512 kts | 184° |
| 2026-05-07 03:26 | 46.61431 | -122.30956 | 22397 ft | 499 kts | 184° |
| 2026-05-07 03:26 | 46.57998 | -122.30942 | 21113 ft | 488 kts | 184° |
| 2026-05-07 03:26 | 46.54638 | -122.30933 | 19921 ft | 477 kts | 184° |
| 2026-05-07 03:27 | 46.51357 | -122.30933 | 19046 ft | 469 kts | 185° |
| 2026-05-07 03:27 | 46.48098 | -122.30940 | 18157 ft | 465 kts | 185° |
| 2026-05-07 03:27 | 46.44878 | -122.30949 | 17445 ft | 458 kts | 184° |
| 2026-05-07 03:27 | 46.41747 | -122.30954 | 16663 ft | 453 kts | 185° |
| 2026-05-07 03:28 | 46.38581 | -122.30954 | 15843 ft | 446 kts | 184° |
| 2026-05-07 03:28 | 46.35494 | -122.30951 | 14858 ft | 440 kts | 184° |
| 2026-05-07 03:28 | 46.32449 | -122.30952 | 13973 ft | 434 kts | 184° |
| 2026-05-07 03:28 | 46.29500 | -122.30955 | 13294 ft | 426 kts | 184° |
| 2026-05-07 03:29 | 46.26538 | -122.31205 | 12825 ft | 413 kts | 193° |
| 2026-05-07 03:29 | 46.23847 | -122.32078 | 12690 ft | 390 kts | 202° |
| 2026-05-07 03:29 | 46.21377 | -122.33387 | 12564 ft | 370 kts | 206° |
| 2026-05-07 03:29 | 46.19026 | -122.34688 | 12443 ft | 353 kts | 206° |
| 2026-05-07 03:30 | 46.16771 | -122.35932 | 12302 ft | 339 kts | 206° |
| 2026-05-07 03:30 | 46.14614 | -122.37122 | 12173 ft | 327 kts | 206° |
| 2026-05-07 03:30 | 46.12519 | -122.38283 | 11950 ft | 318 kts | 207° |
| 2026-05-07 03:30 | 46.10475 | -122.39422 | 11828 ft | 314 kts | 206° |
| 2026-05-07 03:31 | 46.08451 | -122.40552 | 11761 ft | 312 kts | 206° |
| 2026-05-07 03:31 | 46.06444 | -122.41651 | 11570 ft | 305 kts | 206° |
| 2026-05-07 03:31 | 46.04467 | -122.42720 | 11222 ft | 303 kts | 206° |
| 2026-05-07 03:31 | 46.02523 | -122.43766 | 10727 ft | 301 kts | 205° |
| 2026-05-07 03:32 | 46.00544 | -122.44827 | 10222 ft | 299 kts | 205° |
| 2026-05-07 03:32 | 45.98602 | -122.45870 | 9709 ft | 297 kts | 204° |
| 2026-05-07 03:32 | 45.96698 | -122.46895 | 9154 ft | 295 kts | 204° |
| 2026-05-07 03:32 | 45.94784 | -122.47906 | 8593 ft | 293 kts | 200° |
| 2026-05-07 03:33 | 45.92751 | -122.48451 | 8020 ft | 295 kts | 186° |
| 2026-05-07 03:33 | 45.90729 | -122.48260 | 7635 ft | 296 kts | 172° |
| 2026-05-07 03:33 | 45.88706 | -122.47741 | 7120 ft | 294 kts | 173° |
| 2026-05-07 03:33 | 45.86695 | -122.47236 | 6603 ft | 291 kts | 173° |
| 2026-05-07 03:34 | 45.84740 | -122.46750 | 6342 ft | 279 kts | 173° |
| 2026-05-07 03:34 | 45.82860 | -122.46280 | 6207 ft | 268 kts | 173° |
| 2026-05-07 03:34 | 45.81011 | -122.45822 | 6085 ft | 279 kts | 173° |
| 2026-05-07 03:34 | 45.79095 | -122.45347 | 5997 ft | 270 kts | 173° |
| 2026-05-07 03:35 | 45.77317 | -122.44897 | 6007 ft | 253 kts | 173° |
| 2026-05-07 03:35 | 45.75616 | -122.44470 | 6005 ft | 248 kts | 174° |
| 2026-05-07 03:35 | 45.73927 | -122.44054 | 6005 ft | 247 kts | 174° |
| 2026-05-07 03:35 | 45.72222 | -122.43637 | 6002 ft | 247 kts | 174° |
| 2026-05-07 03:36 | 45.70531 | -122.43220 | 5999 ft | 243 kts | 174° |
| 2026-05-07 03:36 | 45.68917 | -122.42819 | 6000 ft | 235 kts | 174° |
| 2026-05-07 03:36 | 45.68635 | -122.42749 | 6002 ft | 235 kts | 174° |
| 2026-05-07 03:36 | 45.67017 | -122.42352 | 6002 ft | 234 kts | 174° |
| 2026-05-07 03:37 | 45.65416 | -122.41956 | 6036 ft | 230 kts | 174° |
| 2026-05-07 03:37 | 45.63855 | -122.41571 | 6002 ft | 226 kts | 174° |
| 2026-05-07 03:37 | 45.62305 | -122.41191 | 5999 ft | 226 kts | 174° |
| 2026-05-07 03:37 | 45.60753 | -122.40828 | 5983 ft | 225 kts | 176° |
| 2026-05-07 03:38 | 45.59212 | -122.40585 | 5641 ft | 224 kts | 178° |
| 2026-05-07 03:38 | 45.57654 | -122.40402 | 5215 ft | 224 kts | 179° |
| 2026-05-07 03:38 | 45.56110 | -122.40239 | 4857 ft | 220 kts | 179° |
| 2026-05-07 03:38 | 45.54584 | -122.40078 | 4474 ft | 219 kts | 179° |
| 2026-05-07 03:39 | 45.53127 | -122.40343 | 4016 ft | 209 kts | 210° |
| 2026-05-07 03:39 | 45.52242 | -122.41802 | 3484 ft | 196 kts | 255° |
| 2026-05-07 03:39 | 45.52399 | -122.43669 | 3048 ft | 187 kts | 294° |
| 2026-05-07 03:39 | 45.53014 | -122.45224 | 2719 ft | 179 kts | 297° |
| 2026-05-07 03:40 | 45.53594 | -122.46795 | 2300 ft | 175 kts | 294° |
| 2026-05-07 03:40 | 45.54131 | -122.48306 | 1965 ft | 169 kts | 296° |
| 2026-05-07 03:40 | 45.54688 | -122.49744 | 1707 ft | 155 kts | 299° |
| 2026-05-07 03:40 | 45.55208 | -122.51050 | 1378 ft | 149 kts | 298° |
| 2026-05-07 03:41 | 45.55689 | -122.52302 | 1147 ft | 138 kts | 300° |
| 2026-05-07 03:41 | 45.56136 | -122.53471 | 905 ft | 131 kts | 301° |
| 2026-05-07 03:41 | 45.56578 | -122.54595 | 689 ft | 129 kts | 300° |
| 2026-05-07 03:41 | 45.57004 | -122.55697 | 511 ft | 128 kts | 302° |
| 2026-05-07 03:42 | 45.57443 | -122.56822 | 323 ft | 128 kts | 300° |
| 2026-05-07 03:42 | 45.57873 | -122.57931 | 125 ft | 128 kts | 299° |
| 2026-05-07 03:42 | 45.58305 | -122.59030 | 29 ft | 122 kts | 298° |
| 2026-05-07 03:42 | 45.58649 | -122.59918 | 28 ft | 81 kts | 299° |
| 2026-05-07 03:43 | 45.58849 | -122.60423 | 21 ft | 33 kts | 303° |
| 2026-05-07 03:43 | 45.58954 | -122.60396 | 19 ft | 17 kts | 97° |
| 2026-05-07 03:43 | 45.58938 | -122.60341 | 19 ft | 12 kts | 120° |
| 2026-05-07 03:44 | 45.58922 | -122.60300 | 19 ft | 12 kts | 117° |
| 2026-05-07 03:44 | 45.58884 | -122.60196 | 19 ft | 12 kts | 117° |
| 2026-05-07 03:44 | 45.58842 | -122.60099 | 19 ft | 12 kts | 122° |
| 2026-05-07 03:44 | 45.58800 | -122.60001 | 20 ft | 11 kts | 117° |
| 2026-05-07 03:45 | 45.58763 | -122.59896 | 20 ft | 12 kts | 116° |
| 2026-05-07 03:45 | 45.58726 | -122.59792 | 20 ft | 9 kts | 117° |
| 2026-05-07 03:45 | 45.58711 | -122.59752 | 20 ft | 10 kts | 118° |
| 2026-05-07 03:45 | 45.58708 | -122.59705 | 19 ft | 10 kts | 71° |
| 2026-05-07 03:46 | 45.58762 | -122.59632 | 19 ft | 8 kts | 26° |
| 2026-05-07 03:46 | 45.58812 | -122.59587 | 19 ft | 2 kts | 46° |
| 2026-05-07 03:46 | 45.58826 | -122.59573 | 18 ft | 3 kts | 36° |
| 2026-05-07 03:46 | 45.58828 | -122.59572 | 18 ft | 0 kts | 36° |